Time;durP1;ratioP1;P1;durP2;ratioP2;P2;SDS_P1;SDS_P2;PMS_P1;PMS_P2;Temp;Humidity;BMP_temperature;BMP_pressure;BME280_temperature;BME280_humidity;BME280_pressure;Samples;Min_cycle;Max_cycle;Signal;HPM_P1;HPM_P2
2023/11/04 07:43:11;;;;;;;;;4.00;1.00;;;;;;;;5106769;27;13440;-73
2023/11/04 07:45:37;;;;;;;;;28.00;23.25;;;;;;;;5106530;28;12581;-74
2023/11/04 07:48:03;;;;;;;;;3.00;3.00;;;;;;;;5111706;28;8787;-82
2023/11/04 07:50:28;;;;;;;;;10.50;10.00;;;;;;;;5107579;28;8808;-70
2023/11/04 07:52:54;;;;;;;;;4.75;3.00;;;;;;;;5108004;28;8803;-72
2023/11/04 07:55:21;;;;;;;;;3.00;2.50;;;;;;;;5107943;28;8864;-71
2023/11/04 07:57:47;;;;;;;;;1.00;1.00;;;;;;;;5108108;28;8815;-71
2023/11/04 08:00:12;;;;;;;;;0.00;0.00;;;;;;;;5107593;28;11368;-69
2023/11/04 08:02:38;;;;;;;;;4.00;1.25;;;;;;;;5103728;28;8946;-71
2023/11/04 08:05:10;;;;;;;;;1.25;1.00;;;;;;;;5105517;28;8803;-70
2023/11/04 08:07:35;;;;;;;;;3.00;1.50;;;;;;;;5105480;28;8818;-72
2023/11/04 08:10:01;;;;;;;;;1.75;1.00;;;;;;;;5106073;28;11481;-68
2023/11/04 08:12:26;;;;;;;;;1.00;0.50;;;;;;;;5108498;28;8860;-69
2023/11/04 08:14:51;;;;;;;;;0.25;0.25;;;;;;;;5107398;28;8876;-69
2023/11/04 08:17:17;;;;;;;;;0.00;0.00;;;;;;;;5107316;28;8784;-69
2023/11/04 08:19:42;;;;;;;;;0.75;0.75;;;;;;;;5107277;28;8830;-70
2023/11/04 08:22:09;;;;;;;;;1.00;0.00;;;;;;;;5107331;28;8816;-75
2023/11/04 08:24:35;;;;;;;;;0.00;0.00;;;;;;;;5108015;28;8784;-76
2023/11/04 08:27:00;;;;;;;;;1.00;0.00;;;;;;;;5106706;28;11479;-82
2023/11/04 08:29:25;;;;;;;;;1.00;1.00;;;;;;;;5097562;28;8788;-81
2023/11/04 08:31:51;;;;;;;;;1.00;1.00;;;;;;;;5099956;28;8933;-83
2023/11/04 08:34:16;;;;;;;;;0.00;0.00;;;;;;;;5104586;28;8799;-83
2023/11/04 08:36:42;;;;;;;;;5.75;0.00;;;;;;;;5102311;28;8818;-83
2023/11/04 08:39:07;;;;;;;;;1.00;0.00;;;;;;;;5102222;28;8857;-85
2023/11/04 08:41:32;;;;;;;;;0.00;0.00;;;;;;;;5104579;28;8854;-77
2023/11/04 08:43:58;;;;;;;;;0.25;0.25;;;;;;;;5096080;28;8895;-74
2023/11/04 08:46:23;;;;;;;;;3.50;1.50;;;;;;;;5095815;28;8820;-73
2023/11/04 08:48:48;;;;;;;;;0.00;0.00;;;;;;;;5095891;28;8824;-74
2023/11/04 08:51:14;;;;;;;;;0.00;0.00;;;;;;;;5096330;28;8798;-74
2023/11/04 08:53:39;;;;;;;;;1.00;0.00;;;;;;;;5088126;28;8792;-74
2023/11/04 08:56:08;;;;;;;;;1.00;1.00;;;;;;;;5083975;28;8796;-72
2023/11/04 08:58:37;;;;;;;;;4.25;1.00;;;;;;;;5080100;28;8823;-74
2023/11/04 09:01:02;;;;;;;;;6.00;1.00;;;;;;;;5091050;28;11152;-73
2023/11/04 09:03:28;;;;;;;;;0.00;0.00;;;;;;;;5092871;28;11368;-73
2023/11/04 09:05:53;;;;;;;;;0.50;0.50;;;;;;;;5093176;28;8788;-73
2023/11/04 09:08:19;;;;;;;;;2.25;0.75;;;;;;;;5093107;28;9529;-71
2023/11/04 09:10:44;;;;;;;;;0.00;0.00;;;;;;;;5093025;28;8784;-72
2023/11/04 09:13:10;;;;;;;;;0.25;0.25;;;;;;;;5093089;28;8768;-72
2023/11/04 09:15:35;;;;;;;;;0.00;0.00;;;;;;;;5092672;28;8870;-72
2023/11/04 09:18:02;;;;;;;;;0.00;0.00;;;;;;;;5086316;28;8799;-80
2023/11/04 09:20:29;;;;;;;;;0.00;0.00;;;;;;;;5093200;28;8803;-69
2023/11/04 09:22:54;;;;;;;;;0.75;0.75;;;;;;;;5091699;28;10772;-72
2023/11/04 09:25:20;;;;;;;;;1.00;0.00;;;;;;;;5090800;28;10995;-71
2023/11/04 09:27:45;;;;;;;;;0.00;0.00;;;;;;;;5092339;28;8816;-72
2023/11/04 09:30:11;;;;;;;;;0.00;0.00;;;;;;;;5092670;28;8804;-70
2023/11/04 09:32:36;;;;;;;;;0.00;0.00;;;;;;;;5092294;28;8795;-71
2023/11/04 09:35:02;;;;;;;;;1.00;1.00;;;;;;;;5092583;28;8807;-71
2023/11/04 09:37:28;;;;;;;;;1.00;0.00;;;;;;;;5071849;28;8790;-71
2023/11/04 09:39:53;;;;;;;;;16.25;14.25;;;;;;;;5072040;28;11482;-69
2023/11/04 09:42:18;;;;;;;;;3.00;3.00;;;;;;;;5071974;28;8960;-71
2023/11/04 09:44:44;;;;;;;;;0.75;0.50;;;;;;;;5072593;28;8825;-74
2023/11/04 09:47:09;;;;;;;;;1.75;0.00;;;;;;;;5081513;28;8915;-73
2023/11/04 09:49:35;;;;;;;;;3.00;1.00;;;;;;;;5075621;28;8814;-73
2023/11/04 09:52:00;;;;;;;;;1.75;0.00;;;;;;;;5071915;28;8830;-73
2023/11/04 09:54:27;;;;;;;;;4.00;1.00;;;;;;;;5076478;28;8834;-73
2023/11/04 09:56:54;;;;;;;;;1.25;0.25;;;;;;;;5083023;28;8853;-74
2023/11/04 09:59:20;;;;;;;;;0.00;0.00;;;;;;;;5087923;28;10682;-72
2023/11/04 10:01:45;;;;;;;;;2.00;1.50;;;;;;;;5091526;28;10736;-72
2023/11/04 10:04:10;;;;;;;;;1.25;0.50;;;;;;;;5091496;28;9005;-72
2023/11/04 10:06:36;;;;;;;;;2.00;0.75;;;;;;;;5091309;28;9523;-76
2023/11/04 10:09:01;;;;;;;;;3.25;0.50;;;;;;;;5091813;28;8837;-73
2023/11/04 10:11:29;;;;;;;;;1.75;1.00;;;;;;;;5091567;28;8803;-75
2023/11/04 10:13:56;;;;;;;;;1.25;1.00;;;;;;;;5091655;28;8823;-74
2023/11/04 10:16:22;;;;;;;;;1.00;1.00;;;;;;;;5091649;28;10956;-83
2023/11/04 10:18:49;;;;;;;;;4.50;1.00;;;;;;;;5091439;28;10819;-79
2023/11/04 10:21:14;;;;;;;;;2.00;1.00;;;;;;;;5092734;28;10749;-79
2023/11/04 10:23:40;;;;;;;;;3.25;1.25;;;;;;;;5091416;28;11609;-79
2023/11/04 10:26:05;;;;;;;;;3.25;1.00;;;;;;;;5092934;28;8791;-79
2023/11/04 10:28:31;;;;;;;;;3.00;2.00;;;;;;;;5091731;28;8780;-79
2023/11/04 10:31:01;;;;;;;;;5.00;1.00;;;;;;;;5092041;28;8792;-75
2023/11/04 10:33:28;;;;;;;;;3.50;2.00;;;;;;;;5092869;28;8810;-80
2023/11/04 10:35:53;;;;;;;;;3.00;1.75;;;;;;;;5081751;28;11038;-79
2023/11/04 10:38:19;;;;;;;;;6.75;2.00;;;;;;;;5077459;28;11003;-69
2023/11/04 10:40:45;;;;;;;;;4.00;2.00;;;;;;;;5070606;28;8778;-71
2023/11/04 10:43:14;;;;;;;;;4.00;1.00;;;;;;;;5070557;28;11711;-75
2023/11/04 10:45:44;;;;;;;;;4.75;1.50;;;;;;;;5076579;28;8813;-73
2023/11/04 10:48:17;;;;;;;;;1.25;0.00;;;;;;;;5071517;28;10802;-72
2023/11/04 10:50:45;;;;;;;;;1.00;0.00;;;;;;;;5072234;28;10278;-72
2023/11/04 10:53:22;;;;;;;;;2.25;1.50;;;;;;;;5069588;28;10352;-72
2023/11/04 10:56:08;;;;;;;;;2.25;0.00;;;;;;;;5077105;28;10329;-72
2023/11/04 10:58:39;;;;;;;;;0.00;0.00;;;;;;;;5091090;28;10079;-77
2023/11/04 11:01:06;;;;;;;;;0.00;0.00;;;;;;;;5090705;28;9673;-72
2023/11/04 11:03:32;;;;;;;;;1.00;0.00;;;;;;;;5090513;28;9210;-71
2023/11/04 11:05:59;;;;;;;;;1.50;0.00;;;;;;;;5090122;28;8788;-72
2023/11/04 11:08:24;;;;;;;;;0.50;0.00;;;;;;;;5090862;28;8787;-72
2023/11/04 11:10:59;;;;;;;;;0.00;0.00;;;;;;;;5092041;28;8830;-72
2023/11/04 11:13:28;;;;;;;;;0.00;0.00;;;;;;;;5089445;28;8799;-73
2023/11/04 11:15:57;;;;;;;;;0.00;0.00;;;;;;;;5089039;28;9023;-72
2023/11/04 11:18:29;;;;;;;;;1.00;1.00;;;;;;;;5089004;28;9259;-71
2023/11/04 11:20:54;;;;;;;;;0.00;0.00;;;;;;;;5090609;28;10307;-71
2023/11/04 11:23:26;;;;;;;;;0.00;0.00;;;;;;;;5090433;28;9548;-72
2023/11/04 11:26:01;;;;;;;;;0.00;0.00;;;;;;;;5090206;28;8919;-72
2023/11/04 11:28:33;;;;;;;;;0.00;0.00;;;;;;;;5085016;28;9703;-71
2023/11/04 11:30:58;;;;;;;;;0.00;0.00;;;;;;;;5081424;28;9848;-71
2023/11/04 11:33:25;;;;;;;;;0.00;0.00;;;;;;;;5070118;28;9880;-71
2023/11/04 11:35:58;;;;;;;;;0.00;0.00;;;;;;;;5081097;28;8829;-71
2023/11/04 11:38:31;;;;;;;;;0.00;0.00;;;;;;;;5079544;28;10186;-70
2023/11/04 11:41:03;;;;;;;;;0.00;0.00;;;;;;;;5081188;28;10169;-70
2023/11/04 11:43:29;;;;;;;;;0.00;0.00;;;;;;;;5078188;28;10108;-73
2023/11/04 11:45:54;;;;;;;;;0.00;0.00;;;;;;;;5076912;28;10393;-72
2023/11/04 11:48:19;;;;;;;;;1.75;0.00;;;;;;;;5078791;28;8887;-73
2023/11/04 11:50:45;;;;;;;;;1.00;0.00;;;;;;;;5080631;28;8780;-74
2023/11/04 11:53:10;;;;;;;;;0.00;0.00;;;;;;;;5068099;28;8897;-73
2023/11/04 11:55:37;;;;;;;;;0.00;0.00;;;;;;;;5066213;28;8953;-74
2023/11/04 11:58:02;;;;;;;;;4.00;1.00;;;;;;;;5088398;28;9647;-71
2023/11/04 12:00:27;;;;;;;;;0.00;0.00;;;;;;;;5089714;28;10443;-70
2023/11/04 12:02:54;;;;;;;;;0.00;0.00;;;;;;;;5089598;28;8910;-70
2023/11/04 12:05:21;;;;;;;;;0.00;0.00;;;;;;;;5089747;28;8784;-70
2023/11/04 12:07:46;;;;;;;;;3.75;2.50;;;;;;;;5080497;28;10381;-70
2023/11/04 12:10:12;;;;;;;;;1.50;1.00;;;;;;;;5079737;28;10617;-70
2023/11/04 12:12:37;;;;;;;;;0.75;0.00;;;;;;;;5080508;28;8776;-70
2023/11/04 12:15:09;;;;;;;;;0.00;0.00;;;;;;;;5078777;28;10376;-70
2023/11/04 12:17:35;;;;;;;;;1.25;0.00;;;;;;;;5080569;28;8812;-70
2023/11/04 12:20:01;;;;;;;;;0.75;0.00;;;;;;;;5077319;28;10554;-71
2023/11/04 12:22:26;;;;;;;;;3.00;0.00;;;;;;;;5070962;28;8834;-69
2023/11/04 12:24:52;;;;;;;;;2.00;1.00;;;;;;;;5068495;28;8980;-70
2023/11/04 12:27:17;;;;;;;;;5.50;5.00;;;;;;;;5080992;28;8908;-71
2023/11/04 12:29:42;;;;;;;;;2.00;0.00;;;;;;;;5093115;28;8961;-68
2023/11/04 12:32:08;;;;;;;;;0.00;0.00;;;;;;;;5093437;28;8832;-68
2023/11/04 12:34:33;;;;;;;;;0.00;0.00;;;;;;;;5093746;28;8780;-68
2023/11/04 12:36:59;;;;;;;;;1.00;0.00;;;;;;;;5092964;28;8812;-68
2023/11/04 12:39:25;;;;;;;;;2.00;0.00;;;;;;;;5093647;28;8822;-69
2023/11/04 12:41:50;;;;;;;;;0.00;0.00;;;;;;;;5093546;28;10484;-67
2023/11/04 12:44:15;;;;;;;;;0.00;0.00;;;;;;;;5092231;28;8834;-70
2023/11/04 12:46:40;;;;;;;;;0.75;0.00;;;;;;;;5092185;28;8807;-71
2023/11/04 12:49:06;;;;;;;;;0.50;0.00;;;;;;;;5085288;28;9591;-72
2023/11/04 12:51:33;;;;;;;;;3.00;0.25;;;;;;;;5092746;28;8938;-73
2023/11/04 12:53:58;;;;;;;;;1.25;0.00;;;;;;;;5093740;28;11687;-73
2023/11/04 12:56:23;;;;;;;;;0.00;0.00;;;;;;;;5091472;28;8831;-74
2023/11/04 12:58:53;;;;;;;;;0.25;0.25;;;;;;;;5093503;28;8788;-73
2023/11/04 13:01:18;;;;;;;;;0.00;0.00;;;;;;;;5093431;28;8827;-69
2023/11/04 13:03:44;;;;;;;;;0.00;0.00;;;;;;;;5093268;28;10668;-70
2023/11/04 13:06:09;;;;;;;;;0.00;0.00;;;;;;;;5092684;28;8900;-70
2023/11/04 13:08:34;;;;;;;;;0.00;0.00;;;;;;;;5094430;28;8786;-70
2023/11/04 13:10:59;;;;;;;;;0.00;0.00;;;;;;;;5093235;28;8796;-73
2023/11/04 13:13:25;;;;;;;;;1.00;0.00;;;;;;;;5093253;28;8780;-72
2023/11/04 13:15:50;;;;;;;;;0.00;0.00;;;;;;;;5092582;28;9472;-74
2023/11/04 13:18:15;;;;;;;;;0.00;0.00;;;;;;;;5090831;28;8823;-73
2023/11/04 13:20:41;;;;;;;;;1.75;0.00;;;;;;;;5089986;28;8792;-80
2023/11/04 13:23:06;;;;;;;;;0.00;0.00;;;;;;;;5092354;28;8819;-73
2023/11/04 13:25:32;;;;;;;;;0.00;0.00;;;;;;;;5092667;28;8841;-72
2023/11/04 13:27:57;;;;;;;;;0.00;0.00;;;;;;;;5090647;28;8826;-71
2023/11/04 13:30:23;;;;;;;;;0.25;0.00;;;;;;;;5092326;28;8788;-74
2023/11/04 13:32:48;;;;;;;;;1.00;0.00;;;;;;;;5092551;28;8804;-72
2023/11/04 13:35:14;;;;;;;;;0.00;0.00;;;;;;;;5092584;28;10492;-73
2023/11/04 13:37:39;;;;;;;;;1.00;0.00;;;;;;;;5092086;28;8842;-73
2023/11/04 13:40:05;;;;;;;;;0.00;0.00;;;;;;;;5093455;28;8783;-73
2023/11/04 13:42:31;;;;;;;;;0.00;0.00;;;;;;;;5089530;28;8843;-73
2023/11/04 13:44:56;;;;;;;;;0.00;0.00;;;;;;;;5091213;28;10759;-72
2023/11/04 13:47:22;;;;;;;;;0.00;0.00;;;;;;;;5091727;28;9589;-73
2023/11/04 13:49:47;;;;;;;;;0.00;0.00;;;;;;;;5092606;28;8910;-71
2023/11/04 13:52:13;;;;;;;;;0.00;0.00;;;;;;;;5090447;28;10503;-72
2023/11/04 13:54:38;;;;;;;;;0.00;0.00;;;;;;;;5092444;28;8795;-73
2023/11/04 13:57:04;;;;;;;;;0.75;0.00;;;;;;;;5090376;28;8900;-72
2023/11/04 13:59:30;;;;;;;;;0.00;0.00;;;;;;;;5092329;28;8788;-71
2023/11/04 14:01:57;;;;;;;;;0.00;0.00;;;;;;;;5092008;28;10488;-72
2023/11/04 14:04:22;;;;;;;;;0.00;0.00;;;;;;;;5091006;28;8903;-71
2023/11/04 14:06:47;;;;;;;;;2.00;0.25;;;;;;;;5091404;28;10449;-72
2023/11/04 14:09:13;;;;;;;;;0.00;0.00;;;;;;;;5092036;28;8772;-72
2023/11/04 14:11:39;;;;;;;;;1.00;0.00;;;;;;;;5092119;28;8784;-71
2023/11/04 14:14:04;;;;;;;;;1.50;0.00;;;;;;;;5092292;28;8898;-72
2023/11/04 14:16:30;;;;;;;;;0.00;0.00;;;;;;;;5090182;28;11497;-72
2023/11/04 14:18:56;;;;;;;;;0.00;0.00;;;;;;;;5091359;28;9600;-72
2023/11/04 14:21:21;;;;;;;;;0.00;0.00;;;;;;;;5091796;28;8831;-72
2023/11/04 14:23:47;;;;;;;;;0.00;0.00;;;;;;;;5090379;28;10583;-69
2023/11/04 14:26:12;;;;;;;;;0.25;0.00;;;;;;;;5089959;28;8819;-72
2023/11/04 14:28:37;;;;;;;;;0.00;0.00;;;;;;;;5091478;28;8807;-70
2023/11/04 14:31:03;;;;;;;;;0.25;0.00;;;;;;;;5090254;28;8799;-71
2023/11/04 14:33:29;;;;;;;;;1.00;0.00;;;;;;;;5091422;28;8776;-71
2023/11/04 14:35:55;;;;;;;;;0.00;0.00;;;;;;;;5091481;28;8842;-72
2023/11/04 14:38:20;;;;;;;;;0.00;0.00;;;;;;;;5089573;28;8823;-71
2023/11/04 14:40:45;;;;;;;;;0.25;0.00;;;;;;;;5091386;28;10499;-74
2023/11/04 14:43:11;;;;;;;;;0.00;0.00;;;;;;;;5089966;28;8812;-69
2023/11/04 14:45:37;;;;;;;;;0.25;0.00;;;;;;;;5091371;28;8919;-70
2023/11/04 14:48:03;;;;;;;;;0.25;0.00;;;;;;;;5090450;28;10373;-70
2023/11/04 14:50:29;;;;;;;;;0.00;0.00;;;;;;;;5089497;28;8816;-74
2023/11/04 14:52:54;;;;;;;;;3.25;1.00;;;;;;;;5091044;28;10376;-73
2023/11/04 14:55:22;;;;;;;;;0.00;0.00;;;;;;;;5089857;28;8888;-72
2023/11/04 14:57:47;;;;;;;;;0.00;0.00;;;;;;;;5090538;28;8788;-69
2023/11/04 15:00:13;;;;;;;;;0.00;0.00;;;;;;;;5091056;28;10277;-68
2023/11/04 15:02:38;;;;;;;;;0.00;0.00;;;;;;;;5090831;28;8823;-69
2023/11/04 15:05:04;;;;;;;;;0.00;0.00;;;;;;;;5092157;28;8780;-70
2023/11/04 15:07:29;;;;;;;;;1.50;0.25;;;;;;;;5090783;28;8784;-71
2023/11/04 15:09:55;;;;;;;;;0.00;0.00;;;;;;;;5090772;28;8776;-72
2023/11/04 15:12:21;;;;;;;;;0.00;0.00;;;;;;;;5090918;28;8814;-72
2023/11/04 15:14:47;;;;;;;;;1.75;0.75;;;;;;;;5090886;28;8806;-73
2023/11/04 15:17:12;;;;;;;;;0.75;0.75;;;;;;;;5090229;28;10300;-73
2023/11/04 15:19:37;;;;;;;;;0.00;0.00;;;;;;;;5090598;28;8768;-72
2023/11/04 15:22:03;;;;;;;;;0.00;0.00;;;;;;;;5090857;28;8788;-73
2023/11/04 15:24:28;;;;;;;;;0.50;0.00;;;;;;;;5090881;28;8780;-74
2023/11/04 15:26:53;;;;;;;;;1.00;1.00;;;;;;;;5089036;28;8959;-74
2023/11/04 15:29:19;;;;;;;;;0.25;0.25;;;;;;;;5090514;28;8772;-72
2023/11/04 15:31:45;;;;;;;;;0.75;0.75;;;;;;;;5089351;28;8796;-72
2023/11/04 15:34:10;;;;;;;;;1.00;0.00;;;;;;;;5091989;28;8861;-73
2023/11/04 15:36:36;;;;;;;;;1.00;0.00;;;;;;;;5090821;28;8772;-71
2023/11/04 15:39:01;;;;;;;;;1.00;0.00;;;;;;;;5090517;28;8837;-71
2023/11/04 15:41:26;;;;;;;;;0.00;0.00;;;;;;;;5090605;28;8828;-71
2023/11/04 15:43:51;;;;;;;;;0.00;0.00;;;;;;;;5090576;28;8812;-75
2023/11/04 15:46:17;;;;;;;;;0.00;0.00;;;;;;;;5090512;28;8788;-72
2023/11/04 15:48:42;;;;;;;;;0.00;0.00;;;;;;;;5089197;28;8816;-75
2023/11/04 15:51:07;;;;;;;;;1.00;0.00;;;;;;;;5088675;28;8822;-70
2023/11/04 15:53:33;;;;;;;;;1.00;1.00;;;;;;;;5089603;28;8902;-70
2023/11/04 15:55:58;;;;;;;;;2.00;2.00;;;;;;;;5090027;28;8792;-70
2023/11/04 15:58:24;;;;;;;;;1.00;1.00;;;;;;;;5090143;28;8913;-72
2023/11/04 16:00:50;;;;;;;;;3.75;2.00;;;;;;;;5090029;28;8857;-70
2023/11/04 16:03:15;;;;;;;;;1.00;1.00;;;;;;;;5089511;28;10631;-70
2023/11/04 16:05:40;;;;;;;;;3.25;1.00;;;;;;;;5094548;28;8780;-70
2023/11/04 16:08:06;;;;;;;;;6.00;4.00;;;;;;;;5093872;28;8807;-70
2023/11/04 16:10:31;;;;;;;;;3.00;3.00;;;;;;;;5094179;28;8792;-70
2023/11/04 16:12:56;;;;;;;;;4.00;2.50;;;;;;;;5094421;28;8908;-72
2023/11/04 16:15:22;;;;;;;;;1.25;1.25;;;;;;;;5094414;28;8796;-71
2023/11/04 16:17:47;;;;;;;;;2.00;0.50;;;;;;;;5089020;22;8896;-74
2023/11/04 16:20:12;;;;;;;;;0.00;0.00;;;;;;;;5034718;28;8821;-74
2023/11/04 16:22:38;;;;;;;;;1.00;0.00;;;;;;;;5053016;28;8846;-73
2023/11/04 16:25:04;;;;;;;;;27.00;25.25;;;;;;;;5053215;28;8893;-75
2023/11/04 16:27:30;;;;;;;;;2.75;1.00;;;;;;;;5052929;28;8815;-75
2023/11/04 16:29:55;;;;;;;;;1.00;1.00;;;;;;;;5034951;28;10428;-81
2023/11/04 16:32:21;;;;;;;;;6.75;3.00;;;;;;;;5034863;28;8822;-77
2023/11/04 16:34:46;;;;;;;;;0.00;0.00;;;;;;;;5052876;28;8814;-75
2023/11/04 16:37:11;;;;;;;;;0.00;0.00;;;;;;;;5052564;28;9548;-76
2023/11/04 16:39:38;;;;;;;;;0.00;0.00;;;;;;;;5052622;28;8830;-74
2023/11/04 16:42:03;;;;;;;;;2.00;0.00;;;;;;;;5034455;28;9433;-76
2023/11/04 16:44:28;;;;;;;;;0.00;0.00;;;;;;;;5052610;28;10305;-78
2023/11/04 16:46:54;;;;;;;;;0.00;0.00;;;;;;;;5062149;28;8816;-79
2023/11/04 16:49:19;;;;;;;;;0.25;0.25;;;;;;;;5076809;28;9459;-77
2023/11/04 16:51:46;;;;;;;;;0.00;0.00;;;;;;;;5054440;28;8892;-72
2023/11/04 16:54:12;;;;;;;;;0.00;0.00;;;;;;;;5072785;28;8815;-75
2023/11/04 16:56:40;;;;;;;;;2.00;0.00;;;;;;;;5072855;28;10424;-75
2023/11/04 16:59:05;;;;;;;;;0.00;0.00;;;;;;;;5054467;28;8848;-76
2023/11/04 17:01:31;;;;;;;;;0.00;0.00;;;;;;;;5034524;28;10331;-75
2023/11/04 17:03:56;;;;;;;;;0.00;0.00;;;;;;;;5035004;28;8802;-76
2023/11/04 17:06:22;;;;;;;;;0.00;0.00;;;;;;;;5052692;28;9589;-77
2023/11/04 17:08:48;;;;;;;;;0.00;0.00;;;;;;;;5052684;28;8806;-76
2023/11/04 17:11:20;;;;;;;;;0.00;0.00;;;;;;;;5052814;28;10181;-77
2023/11/04 17:13:45;;;;;;;;;0.00;0.00;;;;;;;;5051782;28;8821;-75
2023/11/04 17:16:12;;;;;;;;;0.00;0.00;;;;;;;;5055659;28;10162;-78
2023/11/04 17:18:38;;;;;;;;;0.00;0.00;;;;;;;;5057890;28;9645;-77
2023/11/04 17:21:03;;;;;;;;;1.00;0.00;;;;;;;;5035206;28;10269;-76
2023/11/04 17:23:28;;;;;;;;;0.00;0.00;;;;;;;;5052414;28;8841;-74
2023/11/04 17:25:54;;;;;;;;;0.00;0.00;;;;;;;;5052074;28;8832;-74
